< < Back
Terminal Aerodrome Forecast


Current Version              Previous Versions:   1  2  3  4  5  6  7  8  9  

Terminal Aerodrome Forecast

728
FTUS44 KBMX 302300
TAFANB
TAF
KANB 302333Z 3100/3124 VRB03KT P6SM SCT250=

Latest METAR

366
SAUS70 KWBC 311700 RRS
MTRANB
METAR KANB 311653Z AUTO 01003KT 10SM CLR 28/17 A3006 RMK AO2 SLP171
T02830172


USA.gov is the U.S. government's official web portal to all federal, state and local government web resources and services.